createdAt,value
2023-03-22T00:01:22.959Z,9.54
2023-03-22T00:03:51.663Z,9.62
2023-03-22T00:06:19.310Z,9.56
2023-03-22T00:08:50.495Z,9.45
2023-03-22T00:11:18.007Z,9.39
2023-03-22T00:13:46.994Z,9.37
2023-03-22T00:16:15.172Z,9.32
2023-03-22T00:18:42.054Z,9.29
2023-03-22T00:21:13.459Z,9.36
2023-03-22T00:23:40.910Z,9.36
2023-03-22T00:26:09.076Z,9.25
2023-03-22T00:28:36.603Z,9.35
2023-03-22T00:31:04.991Z,9.24
2023-03-22T00:33:32.653Z,9.22
2023-03-22T00:36:07.733Z,9.49
2023-03-22T00:38:44.892Z,9.31
2023-03-22T00:41:19.236Z,9.39
2023-03-22T00:43:47.499Z,9.38
2023-03-22T00:46:15.715Z,9.36
2023-03-22T00:48:43.056Z,9.45
2023-03-22T00:51:10.541Z,9.33
2023-03-22T00:53:39.341Z,9.30
2023-03-22T00:56:08.017Z,9.36
2023-03-22T00:58:34.897Z,9.34
2023-03-22T01:01:01.748Z,9.33
2023-03-22T01:03:28.587Z,9.20
2023-03-22T01:05:58.306Z,9.19
2023-03-22T01:08:25.665Z,9.13
2023-03-22T01:10:52.390Z,9.08
2023-03-22T01:13:19.184Z,9.10
2023-03-22T01:15:47.972Z,9.04
2023-03-22T01:18:14.869Z,9.11
2023-03-22T01:20:42.062Z,9.07
2023-03-22T01:23:09.161Z,9.03
2023-03-22T01:25:35.883Z,8.99
2023-03-22T01:28:02.757Z,9.15
2023-03-22T01:30:30.258Z,9.01
2023-03-22T01:32:57.787Z,9.04
2023-03-22T01:35:24.874Z,9.03
2023-03-22T01:37:52.031Z,9.14
2023-03-22T01:40:19.417Z,8.88
2023-03-22T01:42:46.667Z,8.95
2023-03-22T01:45:13.344Z,8.91
2023-03-22T01:47:55.453Z,8.97
2023-03-22T01:50:24.710Z,8.88
2023-03-22T01:52:53.408Z,8.85
2023-03-22T01:55:22.903Z,8.77
2023-03-22T01:57:50.689Z,8.91
2023-03-22T02:00:19.130Z,8.91
2023-03-22T02:02:51.962Z,8.91
2023-03-22T02:05:19.753Z,8.87
2023-03-22T02:07:49.849Z,8.93
2023-03-22T02:10:24.070Z,8.87
2023-03-22T02:12:58.364Z,8.79
2023-03-22T02:15:33.160Z,8.73
2023-03-22T02:18:34.015Z,8.68
2023-03-22T02:21:06.600Z,8.73
2023-03-22T02:24:01.385Z,8.71
2023-03-22T02:26:47.131Z,8.81
2023-03-22T02:29:30.090Z,8.68
2023-03-22T02:32:28.588Z,8.74
2023-03-22T02:35:20.543Z,8.75
2023-03-22T02:38:07.030Z,8.86
2023-03-22T02:40:43.673Z,8.83
2023-03-22T02:43:30.810Z,8.88
2023-03-22T02:46:02.804Z,8.87
2023-03-22T02:48:40.416Z,8.90
2023-03-22T02:51:15.712Z,9.00
2023-03-22T02:53:48.861Z,9.01
2023-03-22T02:56:28.952Z,8.98
2023-03-22T02:58:59.535Z,9.12
2023-03-22T03:01:38.557Z,9.06
2023-03-22T03:04:11.119Z,9.02
2023-03-22T03:06:46.265Z,9.04
2023-03-22T03:09:18.124Z,8.98
2023-03-22T03:11:51.255Z,9.04
2023-03-22T03:14:22.120Z,9.06
2023-03-22T03:17:08.689Z,9.05
2023-03-22T03:19:46.344Z,9.07
2023-03-22T03:22:34.785Z,9.13
2023-03-22T03:25:25.884Z,9.18
2023-03-22T03:28:22.886Z,9.16
2023-03-22T03:31:03.042Z,9.13
2023-03-22T03:33:34.996Z,9.16
2023-03-22T03:36:07.414Z,9.20
2023-03-22T03:38:38.785Z,9.31
2023-03-22T03:41:11.329Z,9.13
2023-03-22T03:43:40.066Z,9.24
2023-03-22T03:46:08.191Z,9.13
2023-03-22T03:48:37.470Z,9.15
2023-03-22T03:51:04.364Z,9.16
2023-03-22T03:53:31.709Z,9.18
2023-03-22T03:55:58.490Z,9.27
2023-03-22T03:58:25.329Z,9.12
2023-03-22T04:00:52.178Z,9.20
2023-03-22T04:03:18.995Z,9.27
2023-03-22T04:05:45.651Z,9.37
2023-03-22T04:08:12.492Z,9.36
2023-03-22T04:10:39.420Z,9.41
2023-03-22T04:13:06.464Z,9.41
2023-03-22T04:15:33.230Z,9.32
2023-03-22T04:18:00.161Z,9.27
2023-03-22T04:20:27.115Z,9.24
2023-03-22T04:22:53.779Z,9.18
2023-03-22T04:25:22.749Z,9.27
2023-03-22T04:27:51.477Z,9.27
2023-03-22T04:30:20.191Z,9.39
2023-03-22T04:32:47.620Z,9.27
2023-03-22T04:35:14.856Z,9.25
2023-03-22T04:37:43.109Z,9.32
2023-03-22T04:40:16.408Z,9.27
2023-03-22T04:42:44.815Z,9.33
2023-03-22T04:45:12.454Z,9.33
2023-03-22T04:47:39.463Z,9.27
2023-03-22T04:50:07.905Z,9.35
2023-03-22T04:52:36.144Z,9.22
2023-03-22T04:55:03.065Z,9.44
2023-03-22T04:57:30.109Z,9.38
2023-03-22T04:59:56.932Z,9.54
2023-03-22T05:02:23.730Z,9.39
2023-03-22T05:04:50.992Z,9.43
2023-03-22T05:07:17.676Z,9.35
2023-03-22T05:09:49.136Z,9.30
2023-03-22T05:12:16.108Z,9.29
2023-03-22T05:14:42.933Z,9.34
2023-03-22T05:17:09.719Z,9.28
2023-03-22T05:19:36.551Z,9.33
2023-03-22T05:22:03.375Z,9.42
2023-03-22T05:24:31.182Z,9.32
2023-03-22T05:27:00.994Z,9.44
2023-03-22T05:29:28.491Z,9.28
2023-03-22T05:31:55.436Z,9.28
2023-03-22T05:34:22.200Z,9.39
2023-03-22T05:36:51.552Z,9.27
2023-03-22T05:39:18.567Z,9.30
2023-03-22T05:41:46.023Z,9.40
2023-03-22T05:44:12.686Z,9.30
2023-03-22T05:46:39.473Z,9.33
2023-03-22T05:49:06.255Z,9.32
2023-03-22T05:51:32.986Z,9.40
2023-03-22T05:53:59.670Z,9.52
2023-03-22T05:56:26.682Z,9.44
2023-03-22T05:58:53.779Z,9.47
2023-03-22T06:01:21.541Z,9.42
2023-03-22T06:03:48.900Z,9.52
2023-03-22T06:06:15.890Z,9.57
2023-03-22T06:08:43.460Z,9.48
2023-03-22T06:11:10.279Z,9.56
2023-03-22T06:13:37.539Z,9.56
2023-03-22T06:16:05.904Z,9.53
2023-03-22T06:18:33.363Z,9.61
2023-03-22T06:21:00.914Z,9.59
2023-03-22T06:23:28.175Z,9.53
2023-03-22T06:25:55.008Z,9.57
2023-03-22T06:28:21.815Z,9.59
2023-03-22T06:30:50.237Z,9.58
2023-03-22T06:33:17.154Z,9.65
2023-03-22T06:35:43.897Z,9.60
2023-03-22T06:38:10.823Z,9.68
2023-03-22T06:40:37.810Z,9.70
2023-03-22T06:43:06.983Z,9.72
2023-03-22T06:45:34.100Z,9.65
2023-03-22T06:48:01.166Z,9.67
2023-03-22T06:50:29.096Z,9.81
2023-03-22T06:52:56.148Z,9.78
2023-03-22T06:55:22.930Z,9.85
2023-03-22T06:57:49.732Z,9.94
2023-03-22T07:00:16.890Z,9.89
2023-03-22T07:02:43.783Z,9.93
2023-03-22T07:05:10.742Z,9.99
2023-03-22T07:07:37.521Z,10.12
2023-03-22T07:10:04.653Z,10.07
2023-03-22T07:12:31.306Z,10.10
2023-03-22T07:14:58.163Z,10.04
2023-03-22T07:17:24.899Z,10.01
2023-03-22T07:19:51.527Z,10.12
2023-03-22T07:22:18.394Z,10.10
2023-03-22T07:24:56.277Z,10.18
2023-03-22T07:27:23.881Z,10.17
2023-03-22T07:29:50.604Z,10.26
2023-03-22T07:32:17.437Z,10.28
2023-03-22T07:34:44.183Z,10.26
2023-03-22T07:37:10.930Z,10.38
2023-03-22T07:39:37.675Z,10.25
2023-03-22T07:42:04.525Z,10.32
2023-03-22T07:44:31.255Z,10.40
2023-03-22T07:46:58.195Z,10.36
2023-03-22T07:49:25.301Z,10.36
2023-03-22T07:51:52.800Z,10.47
2023-03-22T07:54:32.433Z,10.50
2023-03-22T07:57:01.196Z,10.52
2023-03-22T07:59:28.056Z,10.50
2023-03-22T08:01:55.015Z,10.69
2023-03-22T08:04:22.727Z,10.67
2023-03-22T08:06:50.017Z,10.63
2023-03-22T08:09:17.177Z,10.76
2023-03-22T08:11:44.008Z,10.82
2023-03-22T08:14:10.904Z,10.86
2023-03-22T08:16:38.620Z,10.88
2023-03-22T08:19:06.126Z,10.91
2023-03-22T08:21:32.862Z,11.12
2023-03-22T08:23:59.635Z,11.08
2023-03-22T08:26:27.370Z,11.13
2023-03-22T08:28:53.978Z,11.19
2023-03-22T08:31:20.864Z,11.34
2023-03-22T08:33:47.585Z,11.46
2023-03-22T08:36:17.694Z,11.48
2023-03-22T08:38:45.470Z,11.54
2023-03-22T08:41:13.162Z,11.70
2023-03-22T08:43:40.286Z,11.77
2023-03-22T08:46:07.139Z,11.85
2023-03-22T08:48:35.793Z,11.61
2023-03-22T08:51:03.010Z,11.48
2023-03-22T08:53:29.668Z,11.43
2023-03-22T08:55:58.207Z,11.46
2023-03-22T08:58:24.962Z,11.54
2023-03-22T09:00:52.338Z,11.65
2023-03-22T09:03:19.359Z,11.87
2023-03-22T09:05:46.074Z,12.23
2023-03-22T09:08:19.119Z,12.45
2023-03-22T09:10:51.884Z,12.86
2023-03-22T09:13:19.870Z,12.78
2023-03-22T09:15:47.356Z,12.81
2023-03-22T09:18:15.337Z,12.73
2023-03-22T09:20:43.765Z,12.50
2023-03-22T09:23:10.528Z,12.51
2023-03-22T09:25:37.174Z,12.36
2023-03-22T09:28:04.958Z,12.47
2023-03-22T09:30:31.626Z,12.62
2023-03-22T09:32:58.342Z,12.70
2023-03-22T09:35:25.053Z,12.73
2023-03-22T09:37:54.051Z,12.67
2023-03-22T09:40:26.997Z,12.69
2023-03-22T09:42:56.776Z,12.70
2023-03-22T09:45:32.954Z,12.62
2023-03-22T09:48:00.581Z,12.66
2023-03-22T09:50:32.956Z,12.69
2023-03-22T09:53:00.775Z,12.71
2023-03-22T09:55:39.619Z,12.76
2023-03-22T09:58:15.643Z,12.62
2023-03-22T10:00:49.530Z,12.58
2023-03-22T10:03:50.336Z,12.68
2023-03-22T10:06:26.055Z,12.72
2023-03-22T10:08:59.578Z,12.79
2023-03-22T10:11:53.726Z,12.72
2023-03-22T10:14:41.333Z,12.94
2023-03-22T10:17:15.976Z,13.03
2023-03-22T10:19:51.575Z,13.06
2023-03-22T10:22:25.130Z,13.06
2023-03-22T10:24:53.542Z,13.02
2023-03-22T10:27:23.475Z,13.06
2023-03-22T10:30:20.925Z,13.23
2023-03-22T10:33:19.358Z,13.23
2023-03-22T10:35:46.713Z,13.15
2023-03-22T10:38:23.600Z,13.01
2023-03-22T10:40:52.396Z,13.10
2023-03-22T10:43:40.033Z,12.72
2023-03-22T10:46:14.737Z,12.80
2023-03-22T10:48:45.311Z,12.96
2023-03-22T10:51:28.020Z,13.11
2023-03-22T10:53:58.164Z,13.26
2023-03-22T10:56:25.511Z,13.58
2023-03-22T10:58:52.260Z,13.43
2023-03-22T11:01:28.795Z,13.38
2023-03-22T11:04:06.421Z,13.15
2023-03-22T11:06:40.081Z,13.05
2023-03-22T11:09:21.511Z,13.13
2023-03-22T11:11:51.582Z,13.39
2023-03-22T11:14:27.039Z,13.27
2023-03-22T11:17:07.891Z,13.46
2023-03-22T11:19:37.565Z,13.18
2023-03-22T11:22:24.161Z,13.25
2023-03-22T11:24:51.719Z,13.61
2023-03-22T11:27:26.275Z,13.53
2023-03-22T11:30:08.626Z,13.60
2023-03-22T11:32:37.781Z,13.98
2023-03-22T11:35:13.468Z,14.04
2023-03-22T11:37:45.884Z,14.21
2023-03-22T11:40:17.360Z,13.91
2023-03-22T11:42:45.767Z,14.06
2023-03-22T11:45:21.774Z,13.91
2023-03-22T11:47:49.051Z,13.97
2023-03-22T11:50:32.423Z,13.98
2023-03-22T11:53:03.357Z,13.94
2023-03-22T11:55:31.847Z,13.67
2023-03-22T11:57:58.784Z,13.64
2023-03-22T12:00:27.937Z,13.65
2023-03-22T12:02:58.264Z,13.73
2023-03-22T12:05:31.181Z,13.77
2023-03-22T12:08:00.902Z,13.76
2023-03-22T12:10:40.748Z,13.59
2023-03-22T12:13:19.570Z,13.45
2023-03-22T12:15:54.810Z,13.35
2023-03-22T12:18:21.546Z,13.48
2023-03-22T12:20:58.585Z,13.51
2023-03-22T12:23:31.061Z,13.50
2023-03-22T12:26:09.821Z,13.46
2023-03-22T12:29:03.954Z,13.28
2023-03-22T12:31:39.595Z,13.19
2023-03-22T12:34:19.283Z,13.05
2023-03-22T12:36:51.055Z,13.13
2023-03-22T12:39:36.939Z,13.05
2023-03-22T12:42:13.428Z,12.86
2023-03-22T12:44:46.478Z,12.78
2023-03-22T12:47:25.049Z,12.75
2023-03-22T12:50:12.952Z,12.77
2023-03-22T12:52:46.692Z,12.64
2023-03-22T12:55:34.095Z,12.71
2023-03-22T12:58:01.590Z,12.54
2023-03-22T13:00:35.844Z,12.31
2023-03-22T13:03:18.776Z,12.31
2023-03-22T13:05:50.652Z,12.24
2023-03-22T13:08:22.470Z,12.39
2023-03-22T13:11:05.481Z,12.31
2023-03-22T13:13:43.888Z,12.23
2023-03-22T13:16:13.463Z,12.06
2023-03-22T13:18:59.278Z,12.08
2023-03-22T13:21:29.756Z,12.08
2023-03-22T13:24:05.954Z,12.01
2023-03-22T13:26:35.589Z,12.04
2023-03-22T13:29:10.639Z,12.09
2023-03-22T13:31:43.554Z,12.00
2023-03-22T13:34:17.904Z,12.04
2023-03-22T13:36:56.474Z,12.07
2023-03-22T13:39:25.550Z,11.82
2023-03-22T13:42:20.542Z,11.79
2023-03-22T13:44:57.055Z,11.95
2023-03-22T13:47:43.582Z,11.99
2023-03-22T13:50:28.231Z,11.70
2023-03-22T13:53:02.377Z,11.80
2023-03-22T13:56:00.909Z,11.74
2023-03-22T13:58:36.261Z,11.66
2023-03-22T14:01:47.546Z,11.65
2023-03-22T14:04:22.836Z,11.70
2023-03-22T14:06:57.425Z,11.52
2023-03-22T14:09:35.770Z,11.69
2023-03-22T14:12:14.245Z,11.51
2023-03-22T14:14:44.848Z,11.56
2023-03-22T14:17:40.388Z,11.77
2023-03-22T14:20:11.907Z,11.90
